createdAt,value
2018-06-03T00:00:51.353Z,23.57
2018-06-03T00:03:17.589Z,23.00
2018-06-03T00:05:43.803Z,22.60
2018-06-03T00:08:10.038Z,23.50
2018-06-03T00:10:36.215Z,22.70
2018-06-03T00:13:02.508Z,23.47
2018-06-03T00:15:28.721Z,24.13
2018-06-03T00:17:54.916Z,25.77
2018-06-03T00:20:33.242Z,24.13
2018-06-03T00:22:59.423Z,24.20
2018-06-03T00:25:26.388Z,24.43
2018-06-03T00:27:52.578Z,24.23
2018-06-03T00:30:18.805Z,24.97
2018-06-03T00:32:45.041Z,26.67
2018-06-03T00:35:11.258Z,23.90
2018-06-03T00:37:37.474Z,25.33
2018-06-03T00:40:03.694Z,24.90
2018-06-03T00:42:29.901Z,25.33
2018-06-03T00:44:56.129Z,27.00
2018-06-03T00:47:23.081Z,25.77
2018-06-03T00:49:49.306Z,27.50
2018-06-03T00:52:15.553Z,24.20
2018-06-03T00:54:41.762Z,26.43
2018-06-03T00:57:07.986Z,28.20
2018-06-03T00:59:34.230Z,23.87
2018-06-03T01:02:00.409Z,24.80
2018-06-03T01:04:26.659Z,26.87
2018-06-03T01:06:52.850Z,23.13
2018-06-03T01:09:19.050Z,24.63
2018-06-03T01:11:45.234Z,24.03
2018-06-03T01:14:11.421Z,26.30
2018-06-03T01:16:38.383Z,26.70
2018-06-03T01:19:05.358Z,25.13
2018-06-03T01:21:31.609Z,26.63
2018-06-03T01:23:57.813Z,26.53
2018-06-03T01:26:23.994Z,24.93
2018-06-03T01:28:50.210Z,26.50
2018-06-03T01:31:16.392Z,25.20
2018-06-03T01:33:43.632Z,25.50
2018-06-03T01:36:09.825Z,25.50
2018-06-03T01:38:36.102Z,25.40
2018-06-03T01:41:02.310Z,27.33
2018-06-03T01:43:28.477Z,25.60
2018-06-03T01:45:54.681Z,26.30
2018-06-03T01:48:20.872Z,24.30
2018-06-03T01:50:47.061Z,24.23
2018-06-03T01:53:13.258Z,25.60
2018-06-03T01:55:39.461Z,25.73
2018-06-03T01:58:06.393Z,24.67
2018-06-03T02:00:32.669Z,26.80
2018-06-03T02:02:58.883Z,28.10
2018-06-03T02:05:25.621Z,27.87
2018-06-03T02:07:51.830Z,27.10
2018-06-03T02:10:18.809Z,26.57
2018-06-03T02:12:45.006Z,29.53
2018-06-03T02:15:11.211Z,28.97
2018-06-03T02:17:37.401Z,27.30
2018-06-03T02:20:03.773Z,29.53
2018-06-03T02:22:30.002Z,28.93
2018-06-03T02:24:56.231Z,28.70
2018-06-03T02:27:22.427Z,29.60
2018-06-03T02:29:48.629Z,27.53
2018-06-03T02:32:14.804Z,28.30
2018-06-03T02:34:41.011Z,28.70
2018-06-03T02:37:07.242Z,29.50
2018-06-03T02:39:33.468Z,28.77
2018-06-03T02:41:59.685Z,29.10
2018-06-03T02:44:25.890Z,28.87
2018-06-03T02:46:52.101Z,27.43
2018-06-03T02:49:18.311Z,28.97
2018-06-03T02:51:45.285Z,30.73
2018-06-03T02:54:11.545Z,29.30
2018-06-03T02:56:37.785Z,31.80
2018-06-03T02:59:04.110Z,32.43
2018-06-03T03:01:30.342Z,32.30
2018-06-03T03:03:56.529Z,31.40
2018-06-03T03:06:22.761Z,30.20
2018-06-03T03:08:49.009Z,33.10
2018-06-03T03:11:15.212Z,31.50
2018-06-03T03:13:41.412Z,30.63
2018-06-03T03:16:07.621Z,30.43
2018-06-03T03:18:33.818Z,31.90
2018-06-03T03:21:00.046Z,33.27
2018-06-03T03:23:26.275Z,32.80
2018-06-03T03:25:52.476Z,31.60
2018-06-03T03:28:18.672Z,32.00
2018-06-03T03:30:44.905Z,30.57
2018-06-03T03:33:11.130Z,31.80
2018-06-03T03:35:37.502Z,32.97
2018-06-03T03:38:03.765Z,33.37
2018-06-03T03:40:29.969Z,32.13
2018-06-03T03:42:56.202Z,32.90
2018-06-03T03:45:22.432Z,33.87
2018-06-03T03:47:48.657Z,31.43
2018-06-03T03:50:14.865Z,34.93
2018-06-03T03:52:41.085Z,36.73
2018-06-03T03:55:07.430Z,31.73
2018-06-03T03:57:33.840Z,37.87
2018-06-03T04:00:00.026Z,37.50
2018-06-03T04:02:26.251Z,35.97
2018-06-03T04:04:52.445Z,35.73
2018-06-03T04:07:18.669Z,33.13
2018-06-03T04:09:44.881Z,34.20
2018-06-03T04:12:11.095Z,34.03
2018-06-03T04:14:37.276Z,36.23
2018-06-03T04:17:03.633Z,33.87
2018-06-03T04:19:29.821Z,33.40
2018-06-03T04:21:56.018Z,34.47
2018-06-03T04:24:22.212Z,35.50
2018-06-03T04:27:22.141Z,35.70
2018-06-03T04:29:49.628Z,35.70
2018-06-03T04:32:17.150Z,32.27
2018-06-03T04:34:44.615Z,33.97
2018-06-03T04:37:12.179Z,32.47
2018-06-03T04:39:39.669Z,33.43
2018-06-03T04:42:07.172Z,32.97
2018-06-03T04:44:34.768Z,34.97
2018-06-03T04:47:02.346Z,33.37
2018-06-03T04:49:29.826Z,32.87
2018-06-03T04:51:57.327Z,35.10
2018-06-03T04:54:24.822Z,34.90
2018-06-03T04:56:52.373Z,34.57
2018-06-03T04:59:20.957Z,37.00
2018-06-03T05:01:50.654Z,36.50
2018-06-03T05:04:18.193Z,32.60
2018-06-03T05:06:45.721Z,37.43
2018-06-03T05:09:13.173Z,37.40
2018-06-03T05:11:40.741Z,37.00
2018-06-03T05:14:08.248Z,37.97
2018-06-03T05:16:35.741Z,38.27
2018-06-03T05:19:03.283Z,39.50
2018-06-03T05:21:30.756Z,36.27
2018-06-03T05:23:58.266Z,35.77
2018-06-03T05:26:25.774Z,40.17
2018-06-03T05:28:53.279Z,38.93
2018-06-03T05:31:20.770Z,39.00
2018-06-03T05:33:48.278Z,39.93
2018-06-03T05:36:15.802Z,38.37
2018-06-03T05:38:43.317Z,40.03
2018-06-03T05:41:10.817Z,41.83
2018-06-03T05:43:38.354Z,40.67
2018-06-03T05:46:05.903Z,43.13
2018-06-03T05:48:33.413Z,43.20
2018-06-03T05:51:00.884Z,43.53
2018-06-03T05:53:28.393Z,42.93
2018-06-03T05:55:55.894Z,42.67
2018-06-03T05:58:23.402Z,43.83
2018-06-03T06:00:50.908Z,44.53
2018-06-03T06:03:18.461Z,46.20
2018-06-03T06:05:45.880Z,44.73
2018-06-03T06:08:13.405Z,45.70
2018-06-03T06:10:40.942Z,45.17
2018-06-03T06:13:08.468Z,45.03
2018-06-03T06:15:35.983Z,47.30
2018-06-03T06:18:03.621Z,44.77
2018-06-03T06:20:31.293Z,44.10
2018-06-03T06:22:58.818Z,45.43
2018-06-03T06:25:26.324Z,43.53
2018-06-03T06:27:53.827Z,46.17
2018-06-03T06:30:21.345Z,44.37
2018-06-03T06:32:48.931Z,42.50
2018-06-03T06:35:16.427Z,44.07
2018-06-03T06:37:44.001Z,44.77
2018-06-03T06:40:11.503Z,44.00
2018-06-03T06:42:39.009Z,43.57
2018-06-03T06:45:06.590Z,44.67
2018-06-03T06:47:34.126Z,43.83
2018-06-03T06:50:01.771Z,44.30
2018-06-03T06:52:29.278Z,42.90
2018-06-03T06:54:56.755Z,45.60
2018-06-03T06:57:24.335Z,43.87
2018-06-03T06:59:51.878Z,43.90
2018-06-03T07:02:19.462Z,44.43
2018-06-03T07:04:46.976Z,43.50
2018-06-03T07:07:14.563Z,46.10
2018-06-03T07:09:42.080Z,44.00
2018-06-03T07:12:09.646Z,43.73
2018-06-03T07:14:37.235Z,46.17
2018-06-03T07:17:04.735Z,44.47
2018-06-03T07:19:32.880Z,43.93
2018-06-03T07:22:00.410Z,41.10
2018-06-03T07:24:27.937Z,42.43
2018-06-03T07:26:55.497Z,43.93
2018-06-03T07:29:23.118Z,42.40
2018-06-03T07:31:50.695Z,42.57
2018-06-03T07:34:18.293Z,42.70
2018-06-03T07:36:45.828Z,41.43
2018-06-03T07:39:13.376Z,43.60
2018-06-03T07:41:40.905Z,40.97
2018-06-03T07:44:08.562Z,41.20
2018-06-03T07:46:36.116Z,42.27
2018-06-03T07:49:03.694Z,40.60
2018-06-03T07:51:31.212Z,40.07
2018-06-03T07:53:58.814Z,43.77
2018-06-03T07:56:26.397Z,38.97
2018-06-03T07:58:53.952Z,45.00
2018-06-03T08:01:21.357Z,38.20
2018-06-03T08:03:48.966Z,39.93
2018-06-03T08:06:16.494Z,37.87
2018-06-03T08:08:44.018Z,36.20
2018-06-03T08:11:11.491Z,36.30
2018-06-03T08:13:38.997Z,38.63
2018-06-03T08:16:06.462Z,37.87
2018-06-03T08:18:33.974Z,35.20
2018-06-03T08:21:01.546Z,37.90
2018-06-03T08:23:29.053Z,37.00
2018-06-03T08:25:56.577Z,38.90
2018-06-03T08:28:24.510Z,37.67
2018-06-03T08:30:52.014Z,35.67
2018-06-03T08:33:19.532Z,35.10
2018-06-03T08:35:47.070Z,37.90
2018-06-03T08:38:14.742Z,36.03
2018-06-03T08:40:42.714Z,36.63
2018-06-03T08:43:12.106Z,39.50
2018-06-03T08:45:42.067Z,35.97
2018-06-03T08:48:09.608Z,35.80
2018-06-03T08:50:37.215Z,34.77
2018-06-03T08:53:04.777Z,33.83
2018-06-03T08:55:32.253Z,33.20
2018-06-03T08:57:59.788Z,30.97
2018-06-03T09:00:27.322Z,29.70
2018-06-03T09:02:54.920Z,28.80
2018-06-03T09:05:22.436Z,30.60
2018-06-03T09:07:49.924Z,28.70
2018-06-03T09:10:17.485Z,29.97
2018-06-03T09:12:45.009Z,31.67
2018-06-03T09:15:12.527Z,32.40
2018-06-03T09:17:40.027Z,31.03
2018-06-03T09:20:07.537Z,31.10
2018-06-03T09:22:35.001Z,30.10
2018-06-03T09:25:02.537Z,29.67
2018-06-03T09:27:30.041Z,28.37
2018-06-03T09:29:57.546Z,29.87
2018-06-03T09:32:25.038Z,29.77
2018-06-03T09:34:52.537Z,30.00
2018-06-03T09:37:20.090Z,29.90
2018-06-03T09:39:47.610Z,31.07
2018-06-03T09:42:16.945Z,29.47
2018-06-03T09:44:44.687Z,31.50
2018-06-03T09:47:12.174Z,31.87
2018-06-03T09:49:39.734Z,34.43
2018-06-03T09:52:07.230Z,29.43
2018-06-03T09:54:34.736Z,29.60
2018-06-03T09:57:02.244Z,27.70
2018-06-03T09:59:29.757Z,22.63
2018-06-03T10:01:57.289Z,28.30
2018-06-03T10:04:24.806Z,27.40
2018-06-03T10:06:56.500Z,26.77
2018-06-03T10:09:24.013Z,28.97
2018-06-03T10:11:51.522Z,24.70
2018-06-03T10:14:19.034Z,26.50
2018-06-03T10:16:46.593Z,27.17
2018-06-03T10:19:14.154Z,30.17
2018-06-03T10:21:41.661Z,24.40
2018-06-03T10:24:09.186Z,27.70
2018-06-03T10:26:36.682Z,31.00
2018-06-03T10:29:05.986Z,26.53
2018-06-03T10:31:33.481Z,26.90
2018-06-03T10:34:00.975Z,25.17
2018-06-03T10:36:28.452Z,26.20
2018-06-03T10:38:55.949Z,23.07
2018-06-03T10:41:23.478Z,24.83
2018-06-03T10:43:51.011Z,22.83
2018-06-03T10:46:18.520Z,21.93
2018-06-03T10:48:46.019Z,23.37
2018-06-03T10:51:13.550Z,25.20
2018-06-03T10:53:41.097Z,24.67
2018-06-03T10:56:08.639Z,22.00
2018-06-03T10:58:36.183Z,23.30
2018-06-03T11:01:03.714Z,24.23
2018-06-03T11:03:31.197Z,24.07
2018-06-03T11:05:58.702Z,23.30
2018-06-03T11:08:26.182Z,25.27
2018-06-03T11:10:53.701Z,22.90
2018-06-03T11:13:21.554Z,24.87
2018-06-03T11:15:49.057Z,24.60
2018-06-03T11:18:16.600Z,23.10
2018-06-03T11:20:44.215Z,21.57
2018-06-03T11:23:11.730Z,24.07
2018-06-03T11:25:39.251Z,22.80
2018-06-03T11:28:07.128Z,25.57
2018-06-03T11:30:34.663Z,24.30
2018-06-03T11:33:02.251Z,22.47
2018-06-03T11:35:29.764Z,24.97
2018-06-03T11:37:57.377Z,25.90
2018-06-03T11:40:24.921Z,26.40
2018-06-03T11:42:52.477Z,26.23
2018-06-03T11:45:20.018Z,25.63
2018-06-03T11:47:47.529Z,22.83
2018-06-03T11:50:15.057Z,23.80
2018-06-03T11:52:42.550Z,24.90
2018-06-03T11:55:10.074Z,25.00
2018-06-03T11:59:52.318Z,23.30
2018-06-03T12:02:19.890Z,22.33
2018-06-03T12:04:47.442Z,21.27
2018-06-03T12:07:14.966Z,22.23
2018-06-03T12:09:42.461Z,21.27
2018-06-03T12:12:10.054Z,21.40
2018-06-03T12:14:37.589Z,18.70
2018-06-03T12:17:05.145Z,18.20
2018-06-03T12:19:32.680Z,17.43
2018-06-03T12:22:00.230Z,18.27
2018-06-03T12:24:27.717Z,18.80
2018-06-03T12:26:55.281Z,18.37
2018-06-03T12:29:22.796Z,20.67
2018-06-03T12:31:50.330Z,19.53
2018-06-03T12:34:17.812Z,18.80
2018-06-03T12:36:45.333Z,20.17
2018-06-03T12:39:12.829Z,20.27
2018-06-03T12:41:40.325Z,19.47
2018-06-03T12:44:07.865Z,18.80
2018-06-03T12:46:35.403Z,17.23
2018-06-03T12:49:02.938Z,16.23
2018-06-03T12:51:30.481Z,17.17
2018-06-03T12:53:57.984Z,16.57
2018-06-03T12:56:25.661Z,15.63
2018-06-03T12:58:53.209Z,17.60
2018-06-03T13:01:20.735Z,16.97
2018-06-03T13:03:48.320Z,18.13
2018-06-03T13:06:15.837Z,17.53
2018-06-03T13:08:43.362Z,16.77
2018-06-03T13:11:10.927Z,15.17
2018-06-03T13:13:38.441Z,16.07
2018-06-03T13:16:05.965Z,19.87
2018-06-03T13:18:33.695Z,17.13
2018-06-03T13:21:01.296Z,19.23
2018-06-03T13:23:28.806Z,17.20
2018-06-03T13:25:56.351Z,17.00
2018-06-03T13:28:23.877Z,16.47
2018-06-03T13:30:51.399Z,17.50
2018-06-03T13:33:19.716Z,17.63
2018-06-03T13:35:47.547Z,17.37
2018-06-03T13:38:15.166Z,18.67
2018-06-03T13:40:42.691Z,16.53
2018-06-03T13:43:10.217Z,18.07
2018-06-03T13:45:38.090Z,16.73
2018-06-03T13:48:06.209Z,17.17
2018-06-03T13:50:34.638Z,16.53
2018-06-03T13:53:02.353Z,14.77
2018-06-03T13:55:29.841Z,16.73
2018-06-03T13:57:57.844Z,16.57
2018-06-03T14:00:25.366Z,15.90
2018-06-03T14:02:52.894Z,16.63
2018-06-03T14:05:20.618Z,15.40
2018-06-03T14:07:48.169Z,16.13
2018-06-03T14:10:15.674Z,16.70
2018-06-03T14:12:43.420Z,16.40
2018-06-03T14:15:10.996Z,16.23
2018-06-03T14:17:38.554Z,16.47
2018-06-03T14:20:06.141Z,15.10
2018-06-03T14:22:33.872Z,15.57
2018-06-03T14:25:01.370Z,17.33
2018-06-03T14:27:28.892Z,17.03
2018-06-03T14:29:56.405Z,16.80
2018-06-03T14:32:24.295Z,16.13
2018-06-03T14:34:51.806Z,18.17
2018-06-03T14:37:19.455Z,17.60
2018-06-03T14:39:46.955Z,16.10
2018-06-03T14:42:14.529Z,15.67
2018-06-03T14:44:42.013Z,15.70
2018-06-03T14:47:10.308Z,15.90
2018-06-03T14:49:39.034Z,13.63
2018-06-03T14:52:06.975Z,13.13
2018-06-03T14:54:35.638Z,12.77
2018-06-03T14:57:03.194Z,12.40
2018-06-03T14:59:30.634Z,14.43
2018-06-03T15:01:58.736Z,10.90
2018-06-03T15:04:26.133Z,11.90
2018-06-03T15:06:55.840Z,11.17
2018-06-03T15:09:24.229Z,10.07
2018-06-03T15:11:51.913Z,10.90
2018-06-03T15:14:19.657Z,9.20
2018-06-03T15:16:48.234Z,10.27
2018-06-03T15:19:16.574Z,10.10
2018-06-03T15:21:45.293Z,9.40
2018-06-03T15:24:13.959Z,11.13
2018-06-03T15:26:42.975Z,9.83
2018-06-03T15:29:13.613Z,9.97
2018-06-03T15:31:42.789Z,10.00
2018-06-03T15:34:10.348Z,9.73
2018-06-03T15:36:38.022Z,9.00
2018-06-03T15:39:07.410Z,9.60
2018-06-03T15:41:35.026Z,9.93
2018-06-03T15:44:02.811Z,9.27
2018-06-03T15:46:32.314Z,8.30
2018-06-03T15:49:00.032Z,9.13
2018-06-03T15:51:29.671Z,9.03
2018-06-03T15:53:57.145Z,8.80
2018-06-03T15:56:24.654Z,8.10
2018-06-03T15:58:54.990Z,8.93
2018-06-03T16:01:23.999Z,9.20
2018-06-03T16:03:51.779Z,9.10
2018-06-03T16:06:19.320Z,8.30
2018-06-03T16:08:46.873Z,9.63
2018-06-03T16:11:14.381Z,9.97
2018-06-03T16:13:42.059Z,9.00
2018-06-03T16:16:10.134Z,9.67
2018-06-03T16:18:37.688Z,10.80
2018-06-03T16:21:05.278Z,10.33
2018-06-03T16:23:32.822Z,10.40
2018-06-03T16:26:00.435Z,9.80
2018-06-03T16:28:27.926Z,11.53
2018-06-03T16:30:55.441Z,9.83
2018-06-03T16:33:22.988Z,10.33
2018-06-03T16:35:50.512Z,11.23
2018-06-03T16:38:18.119Z,11.07
2018-06-03T16:40:45.627Z,10.50
2018-06-03T16:43:13.165Z,12.77
2018-06-03T16:45:40.901Z,10.97
2018-06-03T16:48:08.413Z,11.30
2018-06-03T16:50:35.962Z,11.17
2018-06-03T16:53:03.828Z,11.50
2018-06-03T16:55:31.396Z,11.20
2018-06-03T16:57:59.185Z,10.13
2018-06-03T17:00:26.685Z,10.30
2018-06-03T17:02:54.217Z,10.23
2018-06-03T17:05:21.709Z,10.10
2018-06-03T17:07:49.195Z,9.60
2018-06-03T17:10:16.786Z,8.80
2018-06-03T17:12:44.885Z,9.17
2018-06-03T17:15:12.402Z,9.07
2018-06-03T17:17:40.736Z,9.33
2018-06-03T17:20:09.786Z,9.33
2018-06-03T17:22:37.850Z,10.30
2018-06-03T17:25:05.416Z,10.20
2018-06-03T17:27:33.401Z,9.43
2018-06-03T17:30:01.910Z,8.60
2018-06-03T17:32:31.083Z,8.70
2018-06-03T17:34:58.821Z,7.70
2018-06-03T17:37:26.446Z,9.73
2018-06-03T17:39:54.040Z,9.37
2018-06-03T17:42:21.609Z,8.43
2018-06-03T17:44:49.160Z,8.70
2018-06-03T17:47:16.689Z,9.57
2018-06-03T17:49:44.430Z,8.00
2018-06-03T17:52:11.902Z,9.10
2018-06-03T17:54:39.471Z,8.17
2018-06-03T17:57:07.044Z,8.10
2018-06-03T17:59:34.549Z,8.43
2018-06-03T18:02:02.158Z,7.57
2018-06-03T18:04:30.050Z,8.47
2018-06-03T18:06:57.562Z,7.50
2018-06-03T18:09:25.141Z,7.80
2018-06-03T18:11:52.675Z,8.60
2018-06-03T18:14:20.211Z,7.77
2018-06-03T18:16:47.940Z,7.10
2018-06-03T18:19:20.713Z,7.20
2018-06-03T18:21:48.262Z,7.80
2018-06-03T18:24:15.839Z,7.37
2018-06-03T18:26:43.386Z,7.00
2018-06-03T18:29:10.990Z,7.30
2018-06-03T18:31:38.605Z,7.67
2018-06-03T18:34:06.172Z,8.57
2018-06-03T18:36:33.785Z,7.80
2018-06-03T18:39:01.379Z,7.60
2018-06-03T18:41:28.962Z,7.33
2018-06-03T18:43:56.601Z,8.33
2018-06-03T18:46:24.253Z,7.50
2018-06-03T18:48:51.785Z,7.37
2018-06-03T18:51:19.231Z,7.40
2018-06-03T18:53:46.831Z,7.70
2018-06-03T18:56:14.321Z,7.70
2018-06-03T18:58:41.814Z,8.90
2018-06-03T19:01:09.509Z,8.87
2018-06-03T19:03:37.028Z,8.60
2018-06-03T19:06:04.574Z,7.00
2018-06-03T19:08:32.115Z,8.43
2018-06-03T19:10:59.609Z,7.57
2018-06-03T19:13:27.114Z,7.37
2018-06-03T19:15:54.658Z,7.30
2018-06-03T19:18:22.397Z,8.23
2018-06-03T19:20:50.956Z,8.47
2018-06-03T19:23:18.489Z,8.20
2018-06-03T19:25:46.058Z,8.00
2018-06-03T19:28:13.588Z,7.97
2018-06-03T19:30:41.139Z,8.43
2018-06-03T19:33:08.665Z,8.53
2018-06-03T19:35:36.182Z,7.93
2018-06-03T19:38:04.361Z,9.27
2018-06-03T19:40:32.096Z,9.20
2018-06-03T19:42:59.481Z,9.00
2018-06-03T19:45:26.981Z,9.03
2018-06-03T19:47:54.578Z,9.60
2018-06-03T19:50:22.081Z,9.50
2018-06-03T19:52:49.615Z,10.40
2018-06-03T19:55:17.284Z,9.87
2018-06-03T19:57:44.769Z,10.30
2018-06-03T20:00:12.361Z,9.03
2018-06-03T20:02:39.998Z,10.87
2018-06-03T20:05:07.789Z,13.30
2018-06-03T20:07:35.385Z,13.67
2018-06-03T20:10:03.254Z,14.37
2018-06-03T20:12:31.423Z,14.50
2018-06-03T20:14:58.921Z,13.27
2018-06-03T20:17:26.467Z,14.90
2018-06-03T20:19:53.953Z,13.00
2018-06-03T20:22:21.512Z,12.27
2018-06-03T20:24:49.028Z,14.53
2018-06-03T20:27:16.509Z,13.83
2018-06-03T20:29:44.018Z,12.50
2018-06-03T20:32:11.524Z,13.57
2018-06-03T20:34:39.015Z,13.30
2018-06-03T20:37:06.538Z,13.70
2018-06-03T20:39:34.071Z,12.60
2018-06-03T20:42:01.623Z,12.00
2018-06-03T20:44:29.122Z,14.43
2018-06-03T20:46:56.653Z,13.43
2018-06-03T20:49:24.212Z,12.37
2018-06-03T20:51:51.708Z,14.50
2018-06-03T20:54:19.418Z,14.20
2018-06-03T20:56:46.929Z,13.77
2018-06-03T20:59:14.416Z,13.33
2018-06-03T21:01:41.946Z,13.37
2018-06-03T21:04:09.535Z,13.30
2018-06-03T21:06:37.064Z,13.00
2018-06-03T21:09:06.702Z,13.63
2018-06-03T21:11:34.739Z,14.20
2018-06-03T21:14:02.718Z,15.67
2018-06-03T21:16:30.245Z,14.10
2018-06-03T21:18:57.637Z,12.93
2018-06-03T21:21:25.117Z,14.40
2018-06-03T21:23:53.273Z,13.67
2018-06-03T21:26:20.808Z,12.63
2018-06-03T21:28:48.306Z,13.90
2018-06-03T21:31:15.809Z,14.53
2018-06-03T21:33:43.281Z,16.20
2018-06-03T21:36:10.805Z,14.10
2018-06-03T21:38:38.300Z,15.30
2018-06-03T21:41:05.810Z,15.63
2018-06-03T21:43:33.321Z,16.77
2018-06-03T21:46:01.420Z,14.63
2018-06-03T21:48:28.914Z,15.10
2018-06-03T21:50:56.449Z,33.97
2018-06-03T21:53:24.205Z,15.17
2018-06-03T21:55:51.692Z,16.10
2018-06-03T21:58:19.485Z,15.47
2018-06-03T22:00:47.474Z,15.83
2018-06-03T22:03:14.945Z,16.30
2018-06-03T22:05:42.468Z,14.67
2018-06-03T22:08:10.085Z,14.30
2018-06-03T22:10:37.581Z,17.30
2018-06-03T22:13:05.910Z,15.00
2018-06-03T22:15:33.458Z,17.23
2018-06-03T22:18:03.417Z,16.30
2018-06-03T22:20:31.000Z,15.67
2018-06-03T22:22:58.489Z,15.97
2018-06-03T22:25:25.989Z,16.37
2018-06-03T22:27:54.420Z,70.27
2018-06-03T22:30:22.737Z,16.50
2018-06-03T22:32:50.385Z,18.90
2018-06-03T22:35:17.873Z,15.93
2018-06-03T22:37:46.369Z,15.43
2018-06-03T22:40:13.994Z,15.77
2018-06-03T22:42:41.691Z,15.17
2018-06-03T22:45:09.172Z,17.57
2018-06-03T22:47:36.673Z,16.37
2018-06-03T22:50:04.180Z,15.43
2018-06-03T22:52:31.697Z,16.37
2018-06-03T22:54:59.157Z,15.63
2018-06-03T22:57:44.246Z,16.20
2018-06-03T23:00:21.990Z,13.90
2018-06-03T23:02:55.317Z,16.70
2018-06-03T23:05:22.917Z,17.20
2018-06-03T23:07:50.815Z,17.87
2018-06-03T23:10:18.298Z,17.20
2018-06-03T23:12:45.798Z,18.47
2018-06-03T23:15:13.278Z,17.50
2018-06-03T23:17:40.769Z,19.77
2018-06-03T23:20:08.219Z,16.90
2018-06-03T23:22:35.734Z,17.20
2018-06-03T23:25:03.309Z,17.77
2018-06-03T23:27:30.798Z,17.50
2018-06-03T23:29:58.330Z,19.63
2018-06-03T23:32:25.826Z,18.60
2018-06-03T23:34:53.322Z,18.07
2018-06-03T23:37:20.845Z,19.20
2018-06-03T23:39:48.334Z,17.77
2018-06-03T23:42:15.829Z,17.67
2018-06-03T23:44:43.306Z,18.40
2018-06-03T23:47:10.783Z,18.43
2018-06-03T23:49:38.270Z,19.37
2018-06-03T23:52:05.769Z,18.93
2018-06-03T23:54:33.217Z,20.43
2018-06-03T23:57:00.661Z,20.27
2018-06-03T23:59:28.175Z,20.70
